This is the latest recevied weather packets stored in our database for station/object CQ0XVC-11. If no packets are shown the sender has not sent any weather packets the latest 1 day(s).
| Time | Temp. | Humidity | Pressure | Rain* | Wind** | Luminosity | Snow |
|---|---|---|---|---|---|---|---|
| 1778011801 | 11.67° C | 56% | 1003.8 hPa | 0 mm | 0.45 m/s, 90° | - | - |
| 1778011545 | 11.67° C | 56% | 1003.9 hPa | 0 mm | 1.34 m/s, 90° | - | - |
| 1778011498 | 11.67° C | 56% | 1003.9 hPa | 0 mm | 1.34 m/s, 90° | - | - |
| 1778011248 | 12.22° C | 56% | 1003.8 hPa | 0 mm | 0.89 m/s, 67° | - | - |
| 1778011197 | 12.22° C | 56% | 1003.8 hPa | 0 mm | 0.89 m/s, 67° | - | - |
| 1778010631 | 12.22° C | 55% | 1003.5 hPa | 0 mm | 1.34 m/s, 67° | - | - |
| 1778010593 | 12.22° C | 55% | 1003.5 hPa | 0 mm | 1.34 m/s, 67° | - | - |
| 1778010322 | 12.78° C | 55% | 1003.6 hPa | 0 mm | 0.45 m/s, 90° | - | - |
| 1778010053 | 12.78° C | 54% | 1003.5 hPa | 0 mm | 0 m/s | - | - |
| 1778009988 | 12.78° C | 54% | 1003.5 hPa | 0 mm | 0 m/s | - | - |
| 1778009685 | 12.78° C | 53% | 1003.3 hPa | 0 mm | 2.24 m/s, 67° | - | - |
| 1778009424 | 12.78° C | 52% | 1003.4 hPa | 0 mm | 0.89 m/s, 315° | - | - |
| 1778009384 | 12.78° C | 52% | 1003.4 hPa | 0 mm | 0.89 m/s, 315° | - | - |
| 1778009118 | 13.33° C | 50% | 1003.3 hPa | 0 mm | 2.68 m/s, 90° | - | - |
| 1778009081 | 13.33° C | 50% | 1003.3 hPa | 0 mm | 2.68 m/s, 90° | - | - |
| 1778008814 | 13.33° C | 49% | 1003.4 hPa | 0 mm | 0.89 m/s, 135° | - | - |
| 1778008779 | 13.33° C | 49% | 1003.4 hPa | 0 mm | 0.89 m/s, 135° | - | - |
| 1778008477 | 13.89° C | 47% | 1003.3 hPa | 0 mm | 2.68 m/s, 67° | - | - |
| 1778008228 | 14.44° C | 45% | 1003.5 hPa | 0 mm | 2.24 m/s, 315° | - | - |
| 1778008175 | 14.44° C | 45% | 1003.5 hPa | 0 mm | 2.24 m/s, 315° | - | - |
| 1778007872 | 15° C | 45% | 1003.2 hPa | 0 mm | 1.79 m/s, 78° | - | - |
| 1778007610 | 15° C | 43% | 1003.2 hPa | 0 mm | 3.13 m/s, 90° | - | - |
| 1778007571 | 15° C | 43% | 1003.2 hPa | 0 mm | 3.13 m/s, 90° | - | - |
| 1778007014 | 15.56° C | 42% | 1003.3 hPa | 0 mm | 0.45 m/s, 337° | - | - |
| 1778006966 | 15.56° C | 42% | 1003.3 hPa | 0 mm | 0.45 m/s, 337° | - | - |
* Rain since midnight (hover to see other rain measurements)
** Current wind speed in m/s (hover to see current wind gust speed)